Time;durP1;ratioP1;P1;durP2;ratioP2;P2;SDS_P1;SDS_P2;PMS_P1;PMS_P2;Temp;Humidity;BMP_temperature;BMP_pressure;BME280_temperature;BME280_humidity;BME280_pressure;Samples;Min_cycle;Max_cycle;Signal;HPM_P1;HPM_P2
2022/05/06 00:00:00;;;;;;;6.55;3.08;;;;;;;;;;5056292;28;20394;-78
2022/05/06 00:02:25;;;;;;;4.72;2.90;;;;;;;;;;5056406;28;20017;-78
2022/05/06 00:04:51;;;;;;;4.57;2.77;;;;;;;;;;5054522;28;20040;-78
2022/05/06 00:07:17;;;;;;;6.85;2.85;;;;;;;;;;5053939;28;20270;-79
2022/05/06 00:09:44;;;;;;;5.15;2.53;;;;;;;;;;5056140;28;20035;-78
2022/05/06 00:12:12;;;;;;;5.20;2.80;;;;;;;;;;5055608;28;20382;-79
2022/05/06 00:14:38;;;;;;;5.13;2.85;;;;;;;;;;5054358;28;20024;-79
2022/05/06 00:17:04;;;;;;;6.03;2.60;;;;;;;;;;5054179;28;20111;-79
2022/05/06 00:19:29;;;;;;;9.07;3.10;;;;;;;;;;5057780;28;20025;-78
2022/05/06 00:21:55;;;;;;;5.13;2.83;;;;;;;;;;5057733;28;20079;-79
2022/05/06 00:24:20;;;;;;;5.20;2.92;;;;;;;;;;5055419;28;20043;-77
2022/05/06 00:26:45;;;;;;;7.03;2.90;;;;;;;;;;5053477;28;20367;-78
2022/05/06 00:29:11;;;;;;;6.03;2.63;;;;;;;;;;5053855;28;20036;-78
2022/05/06 00:31:36;;;;;;;6.82;2.90;;;;;;;;;;5055970;28;20261;-78
2022/05/06 00:34:01;;;;;;;6.72;3.10;;;;;;;;;;5056727;28;20547;-79
2022/05/06 00:36:26;;;;;;;5.95;3.15;;;;;;;;;;5057479;28;20104;-78
2022/05/06 00:38:52;;;;;;;6.10;2.67;;;;;;;;;;5060908;28;20103;-79
2022/05/06 00:41:17;;;;;;;3.42;2.67;;;;;;;;;;5059924;28;20273;-79
2022/05/06 00:43:43;;;;;;;6.70;3.42;;;;;;;;;;5060191;28;20041;-79
2022/05/06 00:46:15;;;;;;;6.93;2.90;;;;;;;;;;5060611;28;20029;-79
2022/05/06 00:48:42;;;;;;;5.50;2.38;;;;;;;;;;5059953;28;20053;-80
2022/05/06 00:51:09;;;;;;;3.90;2.75;;;;;;;;;;5060327;28;20043;-79
2022/05/06 00:53:35;;;;;;;4.78;2.78;;;;;;;;;;5059947;28;20021;-78
2022/05/06 00:56:01;;;;;;;6.95;2.88;;;;;;;;;;5058970;28;20021;-79
2022/05/06 00:58:29;;;;;;;4.32;2.70;;;;;;;;;;5058433;28;20021;-78
2022/05/06 01:00:55;;;;;;;4.53;2.70;;;;;;;;;;5058343;28;20494;-78
2022/05/06 01:03:21;;;;;;;5.25;2.80;;;;;;;;;;5060252;28;20033;-78
2022/05/06 01:05:48;;;;;;;6.10;2.50;;;;;;;;;;5057794;28;20110;-79
2022/05/06 01:08:14;;;;;;;5.03;2.70;;;;;;;;;;5059645;28;20108;-79
2022/05/06 01:10:41;;;;;;;4.23;2.77;;;;;;;;;;5057416;28;20067;-79
2022/05/06 01:13:06;;;;;;;4.00;2.58;;;;;;;;;;5057751;28;20830;-79
2022/05/06 01:15:32;;;;;;;4.28;3.00;;;;;;;;;;5056473;28;20056;-80
2022/05/06 01:17:58;;;;;;;9.20;2.92;;;;;;;;;;5057963;28;20474;-79
2022/05/06 01:20:25;;;;;;;3.97;2.60;;;;;;;;;;5058086;28;20029;-78
2022/05/06 01:22:56;;;;;;;4.18;2.90;;;;;;;;;;5056291;28;20027;-78
2022/05/06 01:25:21;;;;;;;5.63;3.00;;;;;;;;;;5057317;28;20040;-78
2022/05/06 01:28:02;;;;;;;9.32;2.72;;;;;;;;;;5057936;28;20028;-78
2022/05/06 01:30:47;;;;;;;4.53;2.85;;;;;;;;;;5058933;28;20029;-78
2022/05/06 01:33:17;;;;;;;6.60;3.05;;;;;;;;;;5055981;28;20032;-78
2022/05/06 01:35:54;;;;;;;4.53;2.65;;;;;;;;;;5059298;28;20021;-79
2022/05/06 01:38:27;;;;;;;4.47;2.88;;;;;;;;;;5056114;28;20025;-80
2022/05/06 01:40:57;;;;;;;10.45;3.22;;;;;;;;;;5058481;28;20025;-78
2022/05/06 01:43:25;;;;;;;4.68;2.97;;;;;;;;;;5056962;28;20170;-78
2022/05/06 01:45:54;;;;;;;6.78;2.90;;;;;;;;;;5058975;28;20107;-79
2022/05/06 01:48:21;;;;;;;4.80;3.08;;;;;;;;;;5057331;28;20025;-78
2022/05/06 01:50:48;;;;;;;5.47;2.85;;;;;;;;;;5058533;28;20397;-79
2022/05/06 01:53:16;;;;;;;5.60;3.17;;;;;;;;;;5059362;28;20033;-79
2022/05/06 01:55:42;;;;;;;5.47;3.15;;;;;;;;;;5058643;28;20370;-79
2022/05/06 01:58:07;;;;;;;7.30;2.95;;;;;;;;;;5059646;28;20025;-79
2022/05/06 02:00:35;;;;;;;5.00;3.13;;;;;;;;;;5059134;28;20020;-78
2022/05/06 02:03:01;;;;;;;7.15;2.90;;;;;;;;;;5058182;28;20250;-79
2022/05/06 02:05:26;;;;;;;8.02;2.90;;;;;;;;;;5059195;28;20103;-79
2022/05/06 02:07:55;;;;;;;6.17;3.20;;;;;;;;;;5059157;28;20040;-79
2022/05/06 02:10:22;;;;;;;6.45;2.78;;;;;;;;;;5058484;28;20371;-78
2022/05/06 02:12:48;;;;;;;7.10;3.42;;;;;;;;;;5057875;28;20456;-79
2022/05/06 02:15:18;;;;;;;7.68;2.92;;;;;;;;;;5057665;28;20051;-79
2022/05/06 02:17:44;;;;;;;5.05;3.08;;;;;;;;;;5057544;28;20021;-79
2022/05/06 02:20:11;;;;;;;4.10;2.85;;;;;;;;;;5057968;28;20029;-79
2022/05/06 02:22:38;;;;;;;5.85;3.00;;;;;;;;;;5057866;28;20020;-79
2022/05/06 02:25:05;;;;;;;7.28;2.80;;;;;;;;;;5058031;28;20394;-79
2022/05/06 02:27:31;;;;;;;5.55;3.25;;;;;;;;;;5057597;28;20023;-79
2022/05/06 02:35:25;;;;;;;7.85;3.17;;;;;;;;;;5057977;28;20052;-80
2022/05/06 02:37:51;;;;;;;6.30;3.13;;;;;;;;;;5056063;28;20029;-80
2022/05/06 02:40:16;;;;;;;5.57;2.97;;;;;;;;;;5057200;28;20394;-78
2022/05/06 02:42:41;;;;;;;4.37;2.93;;;;;;;;;;5057492;28;20033;-78
2022/05/06 02:45:07;;;;;;;5.50;3.30;;;;;;;;;;5057299;28;20268;-78
2022/05/06 02:47:33;;;;;;;5.75;2.83;;;;;;;;;;5057230;28;20262;-78
2022/05/06 02:49:58;;;;;;;4.53;2.70;;;;;;;;;;5057066;28;20087;-78
2022/05/06 02:52:23;;;;;;;4.47;2.90;;;;;;;;;;5057403;28;20282;-78
2022/05/06 02:54:49;;;;;;;5.00;3.03;;;;;;;;;;5057164;28;20261;-78
2022/05/06 02:57:14;;;;;;;8.85;3.10;;;;;;;;;;5056403;28;20033;-78
2022/05/06 02:59:40;;;;;;;3.85;2.85;;;;;;;;;;5055427;28;20028;-79
2022/05/06 03:02:05;;;;;;;4.35;2.92;;;;;;;;;;5056378;28;20394;-79
2022/05/06 03:04:31;;;;;;;4.20;2.70;;;;;;;;;;5056823;28;20122;-78
2022/05/06 03:06:57;;;;;;;4.72;2.95;;;;;;;;;;5056310;28;20025;-78
2022/05/06 03:09:22;;;;;;;4.57;2.70;;;;;;;;;;5056950;28;20067;-78
2022/05/06 03:11:48;;;;;;;7.18;3.13;;;;;;;;;;5056564;28;20031;-78
2022/05/06 03:14:13;;;;;;;6.13;3.10;;;;;;;;;;5056703;28;20437;-78
2022/05/06 03:16:38;;;;;;;4.45;3.17;;;;;;;;;;5056503;28;20609;-78
2022/05/06 03:19:03;;;;;;;12.05;3.40;;;;;;;;;;5056883;28;20032;-78
2022/05/06 03:21:29;;;;;;;5.88;3.10;;;;;;;;;;5055533;28;20055;-79
2022/05/06 03:23:55;;;;;;;4.23;2.93;;;;;;;;;;5056403;28;20020;-79
2022/05/06 03:26:20;;;;;;;5.18;3.10;;;;;;;;;;5056793;28;20303;-79
2022/05/06 03:28:46;;;;;;;4.82;2.80;;;;;;;;;;5055175;28;20385;-79
2022/05/06 03:31:14;;;;;;;10.30;3.35;;;;;;;;;;5056392;28;20108;-79
2022/05/06 03:33:41;;;;;;;6.22;3.53;;;;;;;;;;5056387;28;20032;-79
2022/05/06 03:36:08;;;;;;;5.85;2.80;;;;;;;;;;5054793;28;20029;-79
2022/05/06 03:38:33;;;;;;;7.15;3.58;;;;;;;;;;5054781;28;20025;-79
2022/05/06 03:40:59;;;;;;;6.78;3.33;;;;;;;;;;5056097;28;20053;-79
2022/05/06 03:43:24;;;;;;;8.43;3.33;;;;;;;;;;5056258;28;20020;-79
2022/05/06 03:45:49;;;;;;;9.02;3.28;;;;;;;;;;5055197;28;20260;-78
2022/05/06 03:48:14;;;;;;;9.73;2.92;;;;;;;;;;5055764;28;20517;-78
2022/05/06 03:53:24;;;;;;;6.45;3.00;;;;;;;;;;5056047;28;20268;-79
2022/05/06 03:55:49;;;;;;;8.13;3.25;;;;;;;;;;5055768;28;20112;-79
2022/05/06 03:58:14;;;;;;;6.50;3.28;;;;;;;;;;5056387;28;20032;-79
2022/05/06 04:00:40;;;;;;;4.57;2.90;;;;;;;;;;5055960;28;20051;-79
2022/05/06 04:03:05;;;;;;;6.90;3.78;;;;;;;;;;5056422;28;20103;-78
2022/05/06 04:05:32;;;;;;;7.22;3.38;;;;;;;;;;5056092;28;20079;-78
2022/05/06 04:07:58;;;;;;;7.57;3.58;;;;;;;;;;5055530;28;20052;-78
2022/05/06 04:10:23;;;;;;;4.68;3.00;;;;;;;;;;5056032;28;20489;-79
2022/05/06 04:12:49;;;;;;;5.68;3.17;;;;;;;;;;5059147;28;20028;-79
2022/05/06 04:15:14;;;;;;;5.78;2.90;;;;;;;;;;5060127;28;20505;-79
2022/05/06 04:17:39;;;;;;;7.32;3.70;;;;;;;;;;5059687;28;20047;-79
2022/05/06 04:25:33;;;;;;;5.75;2.95;;;;;;;;;;5058948;28;20456;-79
2022/05/06 04:27:58;;;;;;;4.70;3.00;;;;;;;;;;5060338;28;20028;-79
2022/05/06 04:30:23;;;;;;;9.25;3.40;;;;;;;;;;5059025;28;20307;-78
2022/05/06 04:32:48;;;;;;;8.77;3.80;;;;;;;;;;5060307;28;20028;-79
2022/05/06 04:35:15;;;;;;;6.33;3.23;;;;;;;;;;5059948;28;20040;-78
2022/05/06 04:37:40;;;;;;;7.15;3.22;;;;;;;;;;5059537;28;20253;-79
2022/05/06 04:40:06;;;;;;;10.00;3.35;;;;;;;;;;5059500;28;20398;-79
2022/05/06 04:42:32;;;;;;;8.98;3.25;;;;;;;;;;5059157;28;20021;-79
2022/05/06 04:44:57;;;;;;;8.32;3.33;;;;;;;;;;5059180;28;20035;-78
2022/05/06 04:47:22;;;;;;;4.78;3.00;;;;;;;;;;5058459;28;20437;-78
2022/05/06 04:49:48;;;;;;;10.95;3.15;;;;;;;;;;5058468;28;20464;-78
2022/05/06 04:52:13;;;;;;;7.13;3.10;;;;;;;;;;5057840;28;20029;-78
2022/05/06 04:54:38;;;;;;;8.03;3.17;;;;;;;;;;5058534;28;20360;-78
2022/05/06 04:57:04;;;;;;;8.10;2.93;;;;;;;;;;5059139;28;20297;-79
2022/05/06 04:59:29;;;;;;;9.80;3.47;;;;;;;;;;5060410;28;20258;-79
2022/05/06 05:01:55;;;;;;;5.53;3.00;;;;;;;;;;5060773;28;20394;-79
2022/05/06 05:04:27;;;;;;;5.47;3.22;;;;;;;;;;5060066;28;20022;-78
2022/05/06 05:06:54;;;;;;;4.90;3.30;;;;;;;;;;5059010;28;20029;-78
2022/05/06 05:09:19;;;;;;;5.47;3.20;;;;;;;;;;5057813;28;20103;-77
2022/05/06 05:11:45;;;;;;;5.75;2.95;;;;;;;;;;5057222;28;20516;-78
2022/05/06 05:14:10;;;;;;;11.18;3.30;;;;;;;;;;5057619;28;20033;-78
2022/05/06 05:16:35;;;;;;;9.30;3.13;;;;;;;;;;5057904;28;20390;-77
2022/05/06 05:19:01;;;;;;;6.07;3.35;;;;;;;;;;5058274;28;20717;-79
2022/05/06 05:21:26;;;;;;;5.87;3.57;;;;;;;;;;5058383;28;20036;-78
2022/05/06 05:23:52;;;;;;;6.45;3.22;;;;;;;;;;5058523;28;20265;-80
2022/05/06 05:26:17;;;;;;;9.52;3.10;;;;;;;;;;5059693;28;20497;-78
2022/05/06 05:28:42;;;;;;;7.57;3.40;;;;;;;;;;5059684;28;20033;-79
2022/05/06 05:31:07;;;;;;;6.80;3.10;;;;;;;;;;5058995;28;20047;-79
2022/05/06 05:33:32;;;;;;;5.20;3.25;;;;;;;;;;5056643;28;20270;-78
2022/05/06 05:35:58;;;;;;;9.80;3.60;;;;;;;;;;5058452;28;20021;-79
2022/05/06 05:38:23;;;;;;;10.70;4.50;;;;;;;;;;5059167;28;20292;-79
2022/05/06 05:40:48;;;;;;;10.10;3.90;;;;;;;;;;5057743;28;20079;-78
2022/05/06 05:48:41;;;;;;;;;;;;;;;;;;5059362;28;20147;-78
2022/05/06 05:51:07;;;;;;;9.70;3.80;;;;;;;;;;5057966;28;20310;-79
2022/05/06 05:53:32;;;;;;;6.30;3.70;;;;;;;;;;5058158;28;20029;-79
2022/05/06 05:55:58;;;;;;;6.78;3.83;;;;;;;;;;5056900;28;20032;-79
2022/05/06 05:58:23;;;;;;;9.60;4.00;;;;;;;;;;5056972;28;20055;-79
2022/05/06 06:00:48;;;;;;;9.95;3.72;;;;;;;;;;5058459;28;20108;-73
2022/05/06 06:03:14;;;;;;;8.85;3.58;;;;;;;;;;5057734;28;20021;-74
2022/05/06 06:05:39;;;;;;;7.90;3.57;;;;;;;;;;5056375;28;20028;-74
2022/05/06 06:08:04;;;;;;;9.47;3.40;;;;;;;;;;5055197;28;20261;-72
2022/05/06 06:10:29;;;;;;;4.07;3.00;;;;;;;;;;5055066;28;20258;-72
2022/05/06 06:12:56;;;;;;;9.38;3.60;;;;;;;;;;5055027;28;20383;-73
2022/05/06 06:15:21;;;;;;;9.02;3.30;;;;;;;;;;5054965;28;20029;-72
2022/05/06 06:17:47;;;;;;;9.77;3.42;;;;;;;;;;5055021;28;20117;-73
2022/05/06 06:20:12;;;;;;;7.83;3.30;;;;;;;;;;5054877;28;20482;-73
2022/05/06 06:22:37;;;;;;;9.63;3.83;;;;;;;;;;5055523;28;20729;-79
2022/05/06 06:25:03;;;;;;;7.63;2.97;;;;;;;;;;5055332;28;20024;-73
2022/05/06 06:27:28;;;;;;;6.78;3.67;;;;;;;;;;5055933;28;20021;-73
2022/05/06 06:29:54;;;;;;;10.57;3.58;;;;;;;;;;5054560;28;20024;-72
2022/05/06 06:32:19;;;;;;;9.65;3.42;;;;;;;;;;5054208;28;20036;-72
2022/05/06 06:34:44;;;;;;;8.67;3.10;;;;;;;;;;5052396;28;20478;-72
2022/05/06 06:37:09;;;;;;;10.23;3.85;;;;;;;;;;5054498;28;20796;-72
2022/05/06 06:39:36;;;;;;;7.03;3.63;;;;;;;;;;5054024;28;20029;-71
2022/05/06 06:42:02;;;;;;;5.28;3.28;;;;;;;;;;5053128;28;20341;-72
2022/05/06 06:44:27;;;;;;;9.30;3.63;;;;;;;;;;5053984;28;20056;-72
2022/05/06 06:46:53;;;;;;;7.18;3.70;;;;;;;;;;5054121;28;20389;-73
2022/05/06 06:49:19;;;;;;;10.30;4.13;;;;;;;;;;5053852;28;20017;-73
2022/05/06 06:51:44;;;;;;;10.55;3.92;;;;;;;;;;5053936;28;20087;-73
2022/05/06 06:54:10;;;;;;;9.57;4.10;;;;;;;;;;5054355;28;20072;-72
2022/05/06 06:56:36;;;;;;;10.80;3.92;;;;;;;;;;5052702;28;20265;-73
2022/05/06 06:59:01;;;;;;;9.40;3.47;;;;;;;;;;5054107;28;20025;-73
2022/05/06 07:01:26;;;;;;;8.65;4.28;;;;;;;;;;5054004;28;20031;-73
2022/05/06 07:03:51;;;;;;;7.88;4.05;;;;;;;;;;5054470;28;20028;-73
2022/05/06 07:11:53;;;;;;;8.25;4.00;;;;;;;;;;5053492;28;20063;-72
2022/05/06 07:14:21;;;;;;;7.45;3.65;;;;;;;;;;5052234;28;20120;-73
2022/05/06 07:16:50;;;;;;;6.45;3.45;;;;;;;;;;5053631;28;20025;-73
2022/05/06 07:19:15;;;;;;;12.27;3.60;;;;;;;;;;5053581;28;20100;-73
2022/05/06 07:21:40;;;;;;;11.68;3.55;;;;;;;;;;5055146;28;20067;-72
2022/05/06 07:24:06;;;;;;;10.43;3.67;;;;;;;;;;5053367;28;20080;-72
2022/05/06 07:26:31;;;;;;;7.20;3.85;;;;;;;;;;5054545;28;20356;-77
2022/05/06 07:28:56;;;;;;;7.70;4.00;;;;;;;;;;5053143;28;20032;-77
2022/05/06 07:31:22;;;;;;;8.32;4.50;;;;;;;;;;5053929;28;20262;-77
2022/05/06 07:33:47;;;;;;;9.88;4.20;;;;;;;;;;5053670;28;20393;-77
2022/05/06 07:36:13;;;;;;;6.63;3.75;;;;;;;;;;5053272;28;20032;-77
2022/05/06 07:38:38;;;;;;;10.00;3.80;;;;;;;;;;5053053;28;20024;-78
2022/05/06 07:41:04;;;;;;;10.57;3.97;;;;;;;;;;5053107;28;20020;-78
2022/05/06 07:43:29;;;;;;;10.77;4.85;;;;;;;;;;5056900;28;20067;-78
2022/05/06 07:45:55;;;;;;;10.10;4.25;;;;;;;;;;5056340;28;20103;-79
2022/05/06 07:48:21;;;;;;;10.30;4.25;;;;;;;;;;5056477;28;20123;-79
2022/05/06 07:50:46;;;;;;;8.75;4.15;;;;;;;;;;5054943;28;20028;-78
2022/05/06 07:53:13;;;;;;;7.22;4.40;;;;;;;;;;5053441;28;20115;-77
2022/05/06 07:55:38;;;;;;;8.02;4.40;;;;;;;;;;5053045;28;20025;-77
2022/05/06 07:58:07;;;;;;;7.60;4.60;;;;;;;;;;5054328;28;20029;-77
2022/05/06 08:00:33;;;;;;;13.20;4.57;;;;;;;;;;5054373;28;20055;-77
2022/05/06 08:05:44;;;;;;;15.50;5.40;;;;;;;;;;5054163;28;20039;-78
2022/05/06 08:08:09;;;;;;;7.60;4.60;;;;;;;;;;5053702;28;20108;-78
2022/05/06 08:10:35;;;;;;;6.88;4.43;;;;;;;;;;5053669;28;20458;-77
2022/05/06 08:13:01;;;;;;;14.23;4.85;;;;;;;;;;5053796;28;20029;-78
2022/05/06 08:15:27;;;;;;;8.38;4.60;;;;;;;;;;5053869;28;20028;-78
2022/05/06 08:17:52;;;;;;;12.53;4.73;;;;;;;;;;5053664;28;20044;-78
2022/05/06 08:20:17;;;;;;;11.43;4.63;;;;;;;;;;5053298;28;20311;-78
2022/05/06 08:22:42;;;;;;;11.82;4.68;;;;;;;;;;5054536;28;20451;-78
2022/05/06 08:25:08;;;;;;;10.60;4.70;;;;;;;;;;5052684;28;20033;-78
2022/05/06 08:27:40;;;;;;;11.82;4.82;;;;;;;;;;5053140;28;20261;-79
2022/05/06 08:30:07;;;;;;;14.05;5.32;;;;;;;;;;5052045;28;20111;-80
2022/05/06 08:32:32;;;;;;;8.63;4.72;;;;;;;;;;5051919;28;20028;-77
2022/05/06 08:34:58;;;;;;;12.80;4.65;;;;;;;;;;5053894;28;20158;-78
2022/05/06 08:37:25;;;;;;;11.82;4.50;;;;;;;;;;5054609;28;20120;-79
2022/05/06 08:39:51;;;;;;;11.15;4.15;;;;;;;;;;5052457;28;20039;-79
2022/05/06 08:42:19;;;;;;;9.23;4.50;;;;;;;;;;5053436;28;20023;-78
2022/05/06 08:53:02;;;;;;;11.07;4.93;;;;;;;;;;5055989;28;20036;-79
2022/05/06 08:55:28;;;;;;;9.80;4.53;;;;;;;;;;5056124;28;20032;-79
2022/05/06 08:57:54;;;;;;;9.75;5.55;;;;;;;;;;5055887;28;20020;-79
2022/05/06 09:00:23;;;;;;;17.20;5.70;;;;;;;;;;5059842;28;20029;-79
2022/05/06 09:02:48;;;;;;;8.52;4.95;;;;;;;;;;5058840;28;20097;-79
2022/05/06 09:05:21;;;;;;;10.30;4.60;;;;;;;;;;5058360;28;20044;-78
2022/05/06 09:08:02;;;;;;;8.60;5.32;;;;;;;;;;5055765;28;20025;-78
2022/05/06 09:10:29;;;;;;;8.68;5.13;;;;;;;;;;5057142;28;20486;-78
2022/05/06 09:13:00;;;;;;;10.68;4.80;;;;;;;;;;5056583;28;20104;-78
2022/05/06 09:18:17;;;;;;;11.23;4.72;;;;;;;;;;5058096;28;20112;-79
2022/05/06 09:20:42;;;;;;;9.02;4.60;;;;;;;;;;5056802;28;20513;-78
2022/05/06 09:23:25;;;;;;;7.22;4.38;;;;;;;;;;5056633;28;20025;-79
2022/05/06 09:25:52;;;;;;;8.55;5.28;;;;;;;;;;5057426;28;20021;-79
2022/05/06 09:28:35;;;;;;;12.73;4.82;;;;;;;;;;5056256;28;20462;-78
2022/05/06 09:31:06;;;;;;;12.30;4.60;;;;;;;;;;5056635;28;20359;-78
2022/05/06 09:33:40;;;;;;;6.63;4.30;;;;;;;;;;5056340;28;20037;-79
2022/05/06 09:36:23;;;;;;;11.73;5.10;;;;;;;;;;5058136;28;20120;-79
2022/05/06 09:39:03;;;;;;;10.23;5.10;;;;;;;;;;5057468;28;20029;-79
2022/05/06 09:41:29;;;;;;;6.10;4.85;;;;;;;;;;5056408;28;20056;-79
2022/05/06 09:44:05;;;;;;;9.57;4.68;;;;;;;;;;5056641;28;20045;-78
2022/05/06 09:46:31;;;;;;;11.50;5.00;;;;;;;;;;5058478;28;20094;-78
2022/05/06 09:48:58;;;;;;;8.38;4.78;;;;;;;;;;5057175;28;20020;-77
2022/05/06 09:51:28;;;;;;;8.80;5.05;;;;;;;;;;5058307;28;20028;-79
2022/05/06 09:53:55;;;;;;;8.13;4.47;;;;;;;;;;5057440;28;20036;-78
2022/05/06 09:56:20;;;;;;;9.02;4.70;;;;;;;;;;5058178;28;20029;-80
2022/05/06 09:58:46;;;;;;;7.90;4.50;;;;;;;;;;5058118;28;20031;-79
2022/05/06 10:01:13;;;;;;;10.80;4.70;;;;;;;;;;5057921;28;20029;-78
2022/05/06 10:03:39;;;;;;;7.95;3.95;;;;;;;;;;5056835;28;20409;-77
2022/05/06 10:06:06;;;;;;;9.82;4.18;;;;;;;;;;5057738;28;20100;-78
2022/05/06 10:08:32;;;;;;;9.80;4.20;;;;;;;;;;5056587;28;20100;-79
2022/05/06 10:11:04;;;;;;;6.70;3.75;;;;;;;;;;5057504;28;20551;-79
2022/05/06 10:13:31;;;;;;;8.68;3.90;;;;;;;;;;5058581;28;20036;-79
2022/05/06 10:15:58;;;;;;;6.20;3.72;;;;;;;;;;5056426;28;20025;-78
2022/05/06 10:18:39;;;;;;;7.93;3.40;;;;;;;;;;5057837;28;20473;-78
2022/05/06 10:21:05;;;;;;;7.47;3.70;;;;;;;;;;5056626;28;20029;-78
2022/05/06 10:23:49;;;;;;;6.43;3.55;;;;;;;;;;5056768;28;20021;-78
2022/05/06 10:26:33;;;;;;;7.32;3.40;;;;;;;;;;5055594;28;20132;-79
2022/05/06 10:34:29;;;;;;;4.18;2.50;;;;;;;;;;5057568;28;20071;-79
2022/05/06 10:36:57;;;;;;;4.15;2.70;;;;;;;;;;5055246;28;20021;-78
2022/05/06 10:39:36;;;;;;;6.60;2.70;;;;;;;;;;5056768;28;20055;-78
2022/05/06 10:42:09;;;;;;;5.20;2.67;;;;;;;;;;5057844;28;20029;-79
2022/05/06 10:44:44;;;;;;;7.40;2.72;;;;;;;;;;5058102;28;20094;-79
2022/05/06 10:47:13;;;;;;;10.30;3.17;;;;;;;;;;5056808;28;20028;-78
2022/05/06 10:49:38;;;;;;;5.57;2.33;;;;;;;;;;5056241;28;20028;-78
2022/05/06 10:52:28;;;;;;;5.13;2.67;;;;;;;;;;5056621;28;20029;-78
2022/05/06 10:54:54;;;;;;;5.10;1.98;;;;;;;;;;5057851;28;20485;-79
2022/05/06 10:57:21;;;;;;;6.68;2.42;;;;;;;;;;5055471;28;20554;-79
2022/05/06 11:00:00;;;;;;;5.05;2.65;;;;;;;;;;5055189;28;20474;-78
2022/05/06 11:02:28;;;;;;;5.32;2.60;;;;;;;;;;5055926;28;20043;-78
2022/05/06 11:04:58;;;;;;;5.60;2.72;;;;;;;;;;5056133;28;20036;-79
2022/05/06 11:07:25;;;;;;;4.97;2.55;;;;;;;;;;5054147;28;20033;-79
2022/05/06 11:09:51;;;;;;;11.30;2.85;;;;;;;;;;5056542;28;20386;-79
2022/05/06 11:12:42;;;;;;;12.60;3.00;;;;;;;;;;5056266;28;20028;-79
2022/05/06 11:15:15;;;;;;;4.97;2.67;;;;;;;;;;5055151;28;20406;-79
2022/05/06 11:17:42;;;;;;;6.43;3.50;;;;;;;;;;5055867;28;20104;-80
2022/05/06 11:20:21;;;;;;;5.88;2.70;;;;;;;;;;5054425;28;20056;-78
2022/05/06 11:22:53;;;;;;;8.75;3.38;;;;;;;;;;5054070;28;20013;-78
2022/05/06 11:25:21;;;;;;;8.45;2.58;;;;;;;;;;5055587;28;20071;-78
2022/05/06 11:27:47;;;;;;;6.00;2.80;;;;;;;;;;5055463;28;20031;-78
2022/05/06 11:30:17;;;;;;;6.55;2.83;;;;;;;;;;5055916;28;20033;-79
2022/05/06 11:32:54;;;;;;;4.13;2.88;;;;;;;;;;5055922;28;20083;-79
2022/05/06 11:35:25;;;;;;;5.25;2.75;;;;;;;;;;5055876;28;20025;-78
2022/05/06 11:37:50;;;;;;;4.40;2.67;;;;;;;;;;5056324;28;20032;-77
2022/05/06 11:40:35;;;;;;;10.93;2.73;;;;;;;;;;5056404;28;20024;-78
2022/05/06 11:43:02;;;;;;;7.15;3.13;;;;;;;;;;5055737;28;20258;-79
2022/05/06 11:48:15;;;;;;;6.78;3.33;;;;;;;;;;5055546;28;20056;-79
2022/05/06 11:50:42;;;;;;;5.28;2.75;;;;;;;;;;5054318;28;20017;-78
2022/05/06 11:53:09;;;;;;;8.10;2.95;;;;;;;;;;5054950;28;20413;-79
2022/05/06 11:55:36;;;;;;;7.07;3.03;;;;;;;;;;5055284;28;20029;-77
2022/05/06 11:58:05;;;;;;;8.93;2.90;;;;;;;;;;5055091;28;20025;-78
2022/05/06 12:00:31;;;;;;;6.15;2.65;;;;;;;;;;5054711;28;20032;-78
2022/05/06 12:03:02;;;;;;;8.07;2.78;;;;;;;;;;5055874;28;20062;-78
2022/05/06 12:05:27;;;;;;;10.27;2.63;;;;;;;;;;5055217;28;20025;-78
2022/05/06 12:07:52;;;;;;;6.77;3.07;;;;;;;;;;5052727;28;20021;-79
2022/05/06 12:10:32;;;;;;;3.83;2.47;;;;;;;;;;5053975;28;20339;-78
2022/05/06 12:13:08;;;;;;;5.72;3.20;;;;;;;;;;5056063;28;20432;-78
2022/05/06 12:15:38;;;;;;;6.00;2.97;;;;;;;;;;5053835;28;20036;-80
2022/05/06 12:18:09;;;;;;;7.20;3.10;;;;;;;;;;5054022;28;20017;-78
2022/05/06 12:20:38;;;;;;;6.82;3.10;;;;;;;;;;5053990;28;20049;-78
2022/05/06 12:23:05;;;;;;;7.15;2.80;;;;;;;;;;5054977;28;20486;-78
2022/05/06 12:25:31;;;;;;;7.18;2.85;;;;;;;;;;5056052;28;20057;-78
2022/05/06 12:28:09;;;;;;;6.07;2.88;;;;;;;;;;5055401;28;20052;-78
2022/05/06 12:30:36;;;;;;;5.35;2.60;;;;;;;;;;5054635;28;20032;-78
2022/05/06 12:33:13;;;;;;;6.25;2.72;;;;;;;;;;5055581;28;20032;-79
2022/05/06 12:36:01;;;;;;;6.00;2.35;;;;;;;;;;5058975;28;20025;-78
2022/05/06 12:38:51;;;;;;;5.63;2.35;;;;;;;;;;5058113;28;20021;-79
2022/05/06 12:41:19;;;;;;;3.85;2.55;;;;;;;;;;5052903;28;20036;-79
2022/05/06 12:43:45;;;;;;;7.70;2.45;;;;;;;;;;5059331;28;20107;-79
2022/05/06 12:46:11;;;;;;;4.65;2.92;;;;;;;;;;5059760;28;20025;-78
2022/05/06 12:51:20;;;;;;;8.07;2.92;;;;;;;;;;5060093;28;20032;-79
2022/05/06 12:53:45;;;;;;;5.20;2.92;;;;;;;;;;5059703;28;20029;-79
2022/05/06 12:56:17;;;;;;;6.20;2.90;;;;;;;;;;5059705;28;20077;-79
2022/05/06 12:58:43;;;;;;;9.13;2.70;;;;;;;;;;5058095;28;20268;-78
2022/05/06 13:01:08;;;;;;;5.68;2.78;;;;;;;;;;5057042;28;20502;-78
2022/05/06 13:03:33;;;;;;;4.17;2.27;;;;;;;;;;5056974;28;20116;-77
2022/05/06 13:05:59;;;;;;;5.67;2.50;;;;;;;;;;5057745;28;20258;-78
2022/05/06 13:08:24;;;;;;;8.63;2.78;;;;;;;;;;5060137;28;20250;-78
2022/05/06 13:10:50;;;;;;;3.67;2.50;;;;;;;;;;5058599;28;20032;-79
2022/05/06 13:13:15;;;;;;;5.65;2.58;;;;;;;;;;5059317;28;20021;-79
2022/05/06 13:15:41;;;;;;;5.68;2.90;;;;;;;;;;5059197;28;20055;-79
2022/05/06 13:18:06;;;;;;;4.88;2.70;;;;;;;;;;5058061;28;20037;-79
2022/05/06 13:20:31;;;;;;;7.10;2.70;;;;;;;;;;5058025;28;20135;-78
2022/05/06 13:22:56;;;;;;;8.13;2.73;;;;;;;;;;5057387;28;20028;-78
2022/05/06 13:25:22;;;;;;;7.73;2.80;;;;;;;;;;5056600;28;20337;-80
2022/05/06 13:27:47;;;;;;;5.27;2.30;;;;;;;;;;5059212;28;20297;-79
2022/05/06 13:30:12;;;;;;;5.93;2.75;;;;;;;;;;5057998;28;20266;-79
2022/05/06 13:32:38;;;;;;;8.27;2.50;;;;;;;;;;5058314;28;20104;-79
2022/05/06 13:35:04;;;;;;;4.05;2.90;;;;;;;;;;5058049;28;20104;-78
2022/05/06 13:37:29;;;;;;;5.97;2.65;;;;;;;;;;5057214;28;20132;-78
2022/05/06 13:39:54;;;;;;;5.33;3.03;;;;;;;;;;5057132;28;20048;-78
2022/05/06 13:42:19;;;;;;;5.15;2.72;;;;;;;;;;5057312;28;20258;-78
2022/05/06 13:44:46;;;;;;;8.90;2.40;;;;;;;;;;5054642;28;20021;-77
2022/05/06 13:47:12;;;;;;;4.75;2.50;;;;;;;;;;5056376;28;20289;-77
2022/05/06 13:49:38;;;;;;;6.80;2.78;;;;;;;;;;5056703;28;20386;-79
2022/05/06 13:52:03;;;;;;;11.30;2.72;;;;;;;;;;5057087;28;20032;-79
2022/05/06 13:54:28;;;;;;;4.18;2.58;;;;;;;;;;5057817;28;20029;-78
2022/05/06 13:59:38;;;;;;;5.20;2.60;;;;;;;;;;5057682;28;20245;-78
2022/05/06 14:02:03;;;;;;;8.38;2.45;;;;;;;;;;5057737;28;20033;-79
2022/05/06 14:04:28;;;;;;;8.25;2.58;;;;;;;;;;5057783;28;20029;-78
2022/05/06 14:06:54;;;;;;;7.72;2.45;;;;;;;;;;5057998;28;20025;-79
2022/05/06 14:09:19;;;;;;;5.68;2.20;;;;;;;;;;5057908;28;20119;-78
2022/05/06 14:11:44;;;;;;;4.57;2.27;;;;;;;;;;5058377;28;20036;-79
2022/05/06 14:14:09;;;;;;;3.90;2.40;;;;;;;;;;5056038;28;20289;-78
2022/05/06 14:16:34;;;;;;;5.37;2.43;;;;;;;;;;5057182;28;20266;-80
2022/05/06 14:19:00;;;;;;;6.00;1.90;;;;;;;;;;5058084;28;20341;-78
2022/05/06 14:21:25;;;;;;;3.65;2.20;;;;;;;;;;5058481;28;20285;-79
2022/05/06 14:23:51;;;;;;;6.60;2.20;;;;;;;;;;5057053;28;20339;-79
2022/05/06 14:26:16;;;;;;;6.68;2.45;;;;;;;;;;5056932;28;20150;-78
2022/05/06 14:28:41;;;;;;;7.23;2.17;;;;;;;;;;5057436;28;20024;-78
2022/05/06 14:31:07;;;;;;;8.70;2.47;;;;;;;;;;5058289;28;20268;-79
2022/05/06 14:33:32;;;;;;;7.50;2.38;;;;;;;;;;5057377;28;20060;-79
2022/05/06 14:35:58;;;;;;;5.23;2.87;;;;;;;;;;5057276;28;20017;-79
2022/05/06 14:38:23;;;;;;;3.92;2.53;;;;;;;;;;5057476;28;20262;-78
2022/05/06 14:40:49;;;;;;;5.90;2.13;;;;;;;;;;5055370;28;20035;-78
2022/05/06 14:43:14;;;;;;;4.40;2.50;;;;;;;;;;5055517;28;20504;-78
2022/05/06 14:45:40;;;;;;;9.00;2.75;;;;;;;;;;5055837;28;20059;-77
2022/05/06 14:48:05;;;;;;;6.68;3.03;;;;;;;;;;5056730;28;20371;-78
2022/05/06 14:50:31;;;;;;;6.13;2.40;;;;;;;;;;5056489;28;20116;-78
2022/05/06 14:52:56;;;;;;;6.72;2.55;;;;;;;;;;5054914;28;20539;-78
2022/05/06 14:55:22;;;;;;;4.70;2.38;;;;;;;;;;5055531;28;20025;-77
2022/05/06 14:57:47;;;;;;;7.22;2.67;;;;;;;;;;5055484;28;20474;-78
2022/05/06 15:00:13;;;;;;;7.25;2.25;;;;;;;;;;5054916;28;20086;-78
2022/05/06 15:02:39;;;;;;;5.93;2.28;;;;;;;;;;5055569;28;20025;-77
2022/05/06 15:05:06;;;;;;;4.03;2.38;;;;;;;;;;5055325;28;20059;-79
2022/05/06 15:07:31;;;;;;;5.90;2.20;;;;;;;;;;5054971;28;20032;-78
2022/05/06 15:09:56;;;;;;;5.95;2.47;;;;;;;;;;5054836;28;20107;-79
2022/05/06 15:12:23;;;;;;;5.38;2.47;;;;;;;;;;5055708;28;20535;-78
2022/05/06 15:14:48;;;;;;;4.10;2.15;;;;;;;;;;5055801;28;20025;-78
2022/05/06 15:17:16;;;;;;;5.78;2.38;;;;;;;;;;5055210;28;20115;-78
2022/05/06 15:19:43;;;;;;;5.43;2.30;;;;;;;;;;5054809;28;20024;-78
2022/05/06 15:22:09;;;;;;;5.40;2.60;;;;;;;;;;5054673;28;20155;-78
2022/05/06 15:24:34;;;;;;;8.13;2.60;;;;;;;;;;5056957;28;20083;-78
2022/05/06 15:27:00;;;;;;;7.28;2.22;;;;;;;;;;5055537;28;20045;-78
2022/05/06 15:29:26;;;;;;;3.97;2.03;;;;;;;;;;5056181;28;20035;-79
2022/05/06 15:31:52;;;;;;;2.70;1.88;;;;;;;;;;5055997;28;20412;-79